sensor_id;sensor_type;location;lat;lon;timestamp;P1;durP1;ratioP1;P2;durP2;ratioP2
9823;SDS011;4951;50.778;7.196;2022-12-11T00:01:39;39.93;;;27.20;;
9823;SDS011;4951;50.778;7.196;2022-12-11T00:04:06;40.73;;;28.70;;
9823;SDS011;4951;50.778;7.196;2022-12-11T00:06:34;40.60;;;28.13;;
9823;SDS011;4951;50.778;7.196;2022-12-11T00:09:01;39.97;;;28.10;;
9823;SDS011;4951;50.778;7.196;2022-12-11T00:11:29;44.60;;;31.27;;
9823;SDS011;4951;50.778;7.196;2022-12-11T00:13:56;38.10;;;26.93;;
9823;SDS011;4951;50.778;7.196;2022-12-11T00:16:23;36.37;;;25.53;;
9823;SDS011;4951;50.778;7.196;2022-12-11T00:18:50;40.23;;;28.10;;
9823;SDS011;4951;50.778;7.196;2022-12-11T00:21:17;38.87;;;28.10;;
9823;SDS011;4951;50.778;7.196;2022-12-11T00:23:45;39.30;;;26.87;;
9823;SDS011;4951;50.778;7.196;2022-12-11T00:26:13;38.00;;;26.97;;
9823;SDS011;4951;50.778;7.196;2022-12-11T00:28:41;38.57;;;27.90;;
9823;SDS011;4951;50.778;7.196;2022-12-11T00:31:10;37.67;;;27.37;;
9823;SDS011;4951;50.778;7.196;2022-12-11T00:33:41;40.83;;;28.93;;
9823;SDS011;4951;50.778;7.196;2022-12-11T00:36:11;41.80;;;28.70;;
9823;SDS011;4951;50.778;7.196;2022-12-11T00:38:39;42.00;;;29.73;;
9823;SDS011;4951;50.778;7.196;2022-12-11T00:41:08;44.67;;;29.60;;
9823;SDS011;4951;50.778;7.196;2022-12-11T00:43:36;43.00;;;29.13;;
9823;SDS011;4951;50.778;7.196;2022-12-11T00:46:04;38.37;;;26.83;;
9823;SDS011;4951;50.778;7.196;2022-12-11T00:48:33;43.17;;;30.80;;
9823;SDS011;4951;50.778;7.196;2022-12-11T00:51:00;39.97;;;26.73;;
9823;SDS011;4951;50.778;7.196;2022-12-11T00:53:27;40.97;;;29.10;;
9823;SDS011;4951;50.778;7.196;2022-12-11T00:55:54;39.47;;;28.23;;
9823;SDS011;4951;50.778;7.196;2022-12-11T00:58:23;42.73;;;31.20;;
9823;SDS011;4951;50.778;7.196;2022-12-11T01:00:50;40.43;;;29.30;;
9823;SDS011;4951;50.778;7.196;2022-12-11T01:03:18;41.73;;;30.67;;
9823;SDS011;4951;50.778;7.196;2022-12-11T01:05:51;40.30;;;30.47;;
9823;SDS011;4951;50.778;7.196;2022-12-11T01:08:19;40.97;;;29.27;;
9823;SDS011;4951;50.778;7.196;2022-12-11T01:10:46;40.37;;;30.40;;
9823;SDS011;4951;50.778;7.196;2022-12-11T01:13:13;40.00;;;28.03;;
9823;SDS011;4951;50.778;7.196;2022-12-11T01:15:42;45.67;;;31.73;;
9823;SDS011;4951;50.778;7.196;2022-12-11T01:18:11;45.53;;;31.33;;
9823;SDS011;4951;50.778;7.196;2022-12-11T01:20:40;40.13;;;28.53;;
9823;SDS011;4951;50.778;7.196;2022-12-11T01:23:08;45.87;;;31.30;;
9823;SDS011;4951;50.778;7.196;2022-12-11T01:25:38;47.80;;;31.47;;
9823;SDS011;4951;50.778;7.196;2022-12-11T01:28:06;48.07;;;31.43;;
9823;SDS011;4951;50.778;7.196;2022-12-11T01:30:34;44.47;;;30.60;;
9823;SDS011;4951;50.778;7.196;2022-12-11T01:33:05;44.40;;;29.83;;
9823;SDS011;4951;50.778;7.196;2022-12-11T01:35:33;46.60;;;32.10;;
9823;SDS011;4951;50.778;7.196;2022-12-11T01:38:00;42.77;;;29.53;;
9823;SDS011;4951;50.778;7.196;2022-12-11T01:40:27;41.43;;;27.47;;
9823;SDS011;4951;50.778;7.196;2022-12-11T01:42:54;40.03;;;26.80;;
9823;SDS011;4951;50.778;7.196;2022-12-11T01:45:24;43.23;;;29.43;;
9823;SDS011;4951;50.778;7.196;2022-12-11T01:47:54;48.03;;;32.37;;
9823;SDS011;4951;50.778;7.196;2022-12-11T01:50:28;44.77;;;28.57;;
9823;SDS011;4951;50.778;7.196;2022-12-11T01:52:59;47.47;;;30.63;;
9823;SDS011;4951;50.778;7.196;2022-12-11T01:55:28;47.30;;;32.50;;
9823;SDS011;4951;50.778;7.196;2022-12-11T01:57:55;50.73;;;33.27;;
9823;SDS011;4951;50.778;7.196;2022-12-11T02:00:22;50.13;;;33.23;;
9823;SDS011;4951;50.778;7.196;2022-12-11T02:02:49;53.20;;;34.47;;
9823;SDS011;4951;50.778;7.196;2022-12-11T02:05:16;46.23;;;30.47;;
9823;SDS011;4951;50.778;7.196;2022-12-11T02:07:45;46.07;;;30.73;;
9823;SDS011;4951;50.778;7.196;2022-12-11T02:10:15;47.87;;;32.90;;
9823;SDS011;4951;50.778;7.196;2022-12-11T02:12:48;49.87;;;32.10;;
9823;SDS011;4951;50.778;7.196;2022-12-11T02:15:24;52.20;;;33.97;;
9823;SDS011;4951;50.778;7.196;2022-12-11T02:17:58;49.23;;;30.40;;
9823;SDS011;4951;50.778;7.196;2022-12-11T02:20:37;48.00;;;32.27;;
9823;SDS011;4951;50.778;7.196;2022-12-11T02:23:14;50.27;;;31.27;;
9823;SDS011;4951;50.778;7.196;2022-12-11T02:26:02;50.53;;;33.47;;
9823;SDS011;4951;50.778;7.196;2022-12-11T02:28:41;49.13;;;32.83;;
9823;SDS011;4951;50.778;7.196;2022-12-11T02:31:13;51.50;;;32.50;;
9823;SDS011;4951;50.778;7.196;2022-12-11T02:33:48;53.77;;;32.10;;
9823;SDS011;4951;50.778;7.196;2022-12-11T02:36:21;51.33;;;32.47;;
9823;SDS011;4951;50.778;7.196;2022-12-11T02:38:52;54.93;;;33.83;;
9823;SDS011;4951;50.778;7.196;2022-12-11T02:41:22;53.83;;;33.63;;
9823;SDS011;4951;50.778;7.196;2022-12-11T02:43:51;53.10;;;31.80;;
9823;SDS011;4951;50.778;7.196;2022-12-11T02:46:20;53.20;;;32.20;;
9823;SDS011;4951;50.778;7.196;2022-12-11T02:48:48;50.43;;;30.60;;
9823;SDS011;4951;50.778;7.196;2022-12-11T02:51:18;53.73;;;32.63;;
9823;SDS011;4951;50.778;7.196;2022-12-11T02:53:52;56.30;;;33.07;;
9823;SDS011;4951;50.778;7.196;2022-12-11T02:56:25;55.07;;;32.90;;
9823;SDS011;4951;50.778;7.196;2022-12-11T02:59:00;55.67;;;34.20;;
9823;SDS011;4951;50.778;7.196;2022-12-11T03:01:32;59.43;;;34.77;;
9823;SDS011;4951;50.778;7.196;2022-12-11T03:03:59;47.70;;;30.40;;
9823;SDS011;4951;50.778;7.196;2022-12-11T03:06:36;56.47;;;32.87;;
9823;SDS011;4951;50.778;7.196;2022-12-11T03:09:08;53.37;;;31.50;;
9823;SDS011;4951;50.778;7.196;2022-12-11T03:11:35;58.13;;;33.93;;
9823;SDS011;4951;50.778;7.196;2022-12-11T03:14:04;54.63;;;33.20;;
9823;SDS011;4951;50.778;7.196;2022-12-11T03:16:33;59.90;;;33.47;;
9823;SDS011;4951;50.778;7.196;2022-12-11T03:19:05;57.37;;;35.67;;
9823;SDS011;4951;50.778;7.196;2022-12-11T03:21:39;55.27;;;31.83;;
9823;SDS011;4951;50.778;7.196;2022-12-11T03:24:14;53.80;;;32.30;;
9823;SDS011;4951;50.778;7.196;2022-12-11T03:26:48;49.70;;;30.23;;
9823;SDS011;4951;50.778;7.196;2022-12-11T03:29:22;54.67;;;29.67;;
9823;SDS011;4951;50.778;7.196;2022-12-11T03:31:52;60.47;;;33.63;;
9823;SDS011;4951;50.778;7.196;2022-12-11T03:34:24;57.00;;;32.60;;
9823;SDS011;4951;50.778;7.196;2022-12-11T03:36:55;57.80;;;32.93;;
9823;SDS011;4951;50.778;7.196;2022-12-11T03:39:25;58.77;;;33.40;;
9823;SDS011;4951;50.778;7.196;2022-12-11T03:41:57;59.23;;;34.87;;
9823;SDS011;4951;50.778;7.196;2022-12-11T03:44:30;63.53;;;36.83;;
9823;SDS011;4951;50.778;7.196;2022-12-11T03:46:59;59.07;;;33.83;;
9823;SDS011;4951;50.778;7.196;2022-12-11T03:49:29;54.57;;;32.20;;
9823;SDS011;4951;50.778;7.196;2022-12-11T03:52:00;60.83;;;33.43;;
9823;SDS011;4951;50.778;7.196;2022-12-11T03:54:30;61.33;;;35.60;;
9823;SDS011;4951;50.778;7.196;2022-12-11T03:56:58;53.60;;;33.13;;
9823;SDS011;4951;50.778;7.196;2022-12-11T03:59:30;59.07;;;33.53;;
9823;SDS011;4951;50.778;7.196;2022-12-11T04:01:58;55.73;;;32.67;;
9823;SDS011;4951;50.778;7.196;2022-12-11T04:04:25;49.93;;;30.53;;
9823;SDS011;4951;50.778;7.196;2022-12-11T04:06:52;53.40;;;30.53;;
9823;SDS011;4951;50.778;7.196;2022-12-11T04:09:19;50.43;;;30.67;;
9823;SDS011;4951;50.778;7.196;2022-12-11T04:11:46;50.10;;;28.07;;
9823;SDS011;4951;50.778;7.196;2022-12-11T04:14:13;52.60;;;30.53;;
9823;SDS011;4951;50.778;7.196;2022-12-11T04:16:59;48.73;;;26.97;;
9823;SDS011;4951;50.778;7.196;2022-12-11T04:19:27;50.60;;;28.23;;
9823;SDS011;4951;50.778;7.196;2022-12-11T04:22:12;47.87;;;27.17;;
9823;SDS011;4951;50.778;7.196;2022-12-11T04:24:58;48.27;;;26.23;;
9823;SDS011;4951;50.778;7.196;2022-12-11T04:27:28;43.23;;;24.57;;
9823;SDS011;4951;50.778;7.196;2022-12-11T04:30:15;45.37;;;25.53;;
9823;SDS011;4951;50.778;7.196;2022-12-11T04:32:45;42.93;;;24.57;;
9823;SDS011;4951;50.778;7.196;2022-12-11T04:35:12;43.83;;;23.93;;
9823;SDS011;4951;50.778;7.196;2022-12-11T04:37:39;41.37;;;23.10;;
9823;SDS011;4951;50.778;7.196;2022-12-11T04:40:07;43.10;;;23.33;;
9823;SDS011;4951;50.778;7.196;2022-12-11T04:42:36;37.37;;;22.17;;
9823;SDS011;4951;50.778;7.196;2022-12-11T04:45:04;41.57;;;23.87;;
9823;SDS011;4951;50.778;7.196;2022-12-11T04:47:33;41.33;;;23.10;;
9823;SDS011;4951;50.778;7.196;2022-12-11T04:50:01;43.93;;;24.33;;
9823;SDS011;4951;50.778;7.196;2022-12-11T04:52:29;44.37;;;24.77;;
9823;SDS011;4951;50.778;7.196;2022-12-11T04:54:57;44.70;;;24.90;;
9823;SDS011;4951;50.778;7.196;2022-12-11T04:57:24;44.77;;;25.47;;
9823;SDS011;4951;50.778;7.196;2022-12-11T04:59:51;45.37;;;26.67;;
9823;SDS011;4951;50.778;7.196;2022-12-11T05:02:18;44.60;;;23.93;;
9823;SDS011;4951;50.778;7.196;2022-12-11T05:04:45;44.30;;;25.90;;
9823;SDS011;4951;50.778;7.196;2022-12-11T05:07:14;41.37;;;24.80;;
9823;SDS011;4951;50.778;7.196;2022-12-11T05:09:41;41.73;;;23.87;;
9823;SDS011;4951;50.778;7.196;2022-12-11T05:12:08;42.53;;;24.13;;
9823;SDS011;4951;50.778;7.196;2022-12-11T05:14:35;41.53;;;23.13;;
9823;SDS011;4951;50.778;7.196;2022-12-11T05:17:03;43.23;;;25.53;;
9823;SDS011;4951;50.778;7.196;2022-12-11T05:19:30;39.10;;;23.67;;
9823;SDS011;4951;50.778;7.196;2022-12-11T05:21:57;38.93;;;21.93;;
9823;SDS011;4951;50.778;7.196;2022-12-11T05:24:25;37.80;;;20.83;;
9823;SDS011;4951;50.778;7.196;2022-12-11T05:26:54;35.60;;;21.77;;
9823;SDS011;4951;50.778;7.196;2022-12-11T05:29:21;43.07;;;24.13;;
9823;SDS011;4951;50.778;7.196;2022-12-11T05:31:48;38.07;;;21.60;;
9823;SDS011;4951;50.778;7.196;2022-12-11T05:34:16;42.87;;;24.80;;
9823;SDS011;4951;50.778;7.196;2022-12-11T05:36:43;45.67;;;27.07;;
9823;SDS011;4951;50.778;7.196;2022-12-11T05:39:10;48.83;;;27.80;;
9823;SDS011;4951;50.778;7.196;2022-12-11T05:41:39;47.33;;;26.83;;
9823;SDS011;4951;50.778;7.196;2022-12-11T05:44:08;44.73;;;27.67;;
9823;SDS011;4951;50.778;7.196;2022-12-11T05:46:37;48.23;;;29.37;;
9823;SDS011;4951;50.778;7.196;2022-12-11T05:49:04;49.33;;;28.57;;
9823;SDS011;4951;50.778;7.196;2022-12-11T05:51:32;48.27;;;28.17;;
9823;SDS011;4951;50.778;7.196;2022-12-11T05:54:00;51.30;;;28.87;;
9823;SDS011;4951;50.778;7.196;2022-12-11T05:56:28;51.17;;;30.47;;
9823;SDS011;4951;50.778;7.196;2022-12-11T05:59:00;46.27;;;27.80;;
9823;SDS011;4951;50.778;7.196;2022-12-11T06:01:29;46.20;;;27.03;;
9823;SDS011;4951;50.778;7.196;2022-12-11T06:03:58;54.33;;;30.23;;
9823;SDS011;4951;50.778;7.196;2022-12-11T06:06:26;55.83;;;30.90;;
9823;SDS011;4951;50.778;7.196;2022-12-11T06:08:54;56.73;;;29.87;;
9823;SDS011;4951;50.778;7.196;2022-12-11T06:11:23;47.80;;;28.27;;
9823;SDS011;4951;50.778;7.196;2022-12-11T06:13:51;49.07;;;29.40;;
9823;SDS011;4951;50.778;7.196;2022-12-11T06:16:20;50.27;;;28.77;;
9823;SDS011;4951;50.778;7.196;2022-12-11T06:18:47;49.50;;;27.97;;
9823;SDS011;4951;50.778;7.196;2022-12-11T06:21:16;56.33;;;31.37;;
9823;SDS011;4951;50.778;7.196;2022-12-11T06:23:45;52.17;;;27.90;;
9823;SDS011;4951;50.778;7.196;2022-12-11T06:26:14;50.23;;;28.50;;
9823;SDS011;4951;50.778;7.196;2022-12-11T06:28:41;64.90;;;34.77;;
9823;SDS011;4951;50.778;7.196;2022-12-11T06:31:09;64.07;;;34.07;;
9823;SDS011;4951;50.778;7.196;2022-12-11T06:33:38;56.80;;;33.47;;
9823;SDS011;4951;50.778;7.196;2022-12-11T06:36:07;61.33;;;34.53;;
9823;SDS011;4951;50.778;7.196;2022-12-11T06:38:36;59.67;;;32.17;;
9823;SDS011;4951;50.778;7.196;2022-12-11T06:41:03;69.20;;;34.40;;
9823;SDS011;4951;50.778;7.196;2022-12-11T06:43:35;63.90;;;33.20;;
9823;SDS011;4951;50.778;7.196;2022-12-11T06:46:04;63.60;;;33.43;;
9823;SDS011;4951;50.778;7.196;2022-12-11T06:48:33;71.60;;;36.53;;
9823;SDS011;4951;50.778;7.196;2022-12-11T06:51:04;69.80;;;35.47;;
9823;SDS011;4951;50.778;7.196;2022-12-11T06:53:32;64.20;;;35.77;;
9823;SDS011;4951;50.778;7.196;2022-12-11T06:56:00;59.23;;;31.23;;
9823;SDS011;4951;50.778;7.196;2022-12-11T06:58:28;65.27;;;35.37;;
9823;SDS011;4951;50.778;7.196;2022-12-11T07:00:55;70.90;;;36.30;;
9823;SDS011;4951;50.778;7.196;2022-12-11T07:03:22;66.07;;;34.70;;
9823;SDS011;4951;50.778;7.196;2022-12-11T07:05:49;53.47;;;31.17;;
9823;SDS011;4951;50.778;7.196;2022-12-11T07:08:18;65.57;;;36.63;;
9823;SDS011;4951;50.778;7.196;2022-12-11T07:10:45;71.13;;;36.47;;
9823;SDS011;4951;50.778;7.196;2022-12-11T07:13:13;70.40;;;36.10;;
9823;SDS011;4951;50.778;7.196;2022-12-11T07:15:40;66.87;;;36.33;;
9823;SDS011;4951;50.778;7.196;2022-12-11T07:18:08;68.07;;;35.70;;
9823;SDS011;4951;50.778;7.196;2022-12-11T07:20:36;69.33;;;35.43;;
9823;SDS011;4951;50.778;7.196;2022-12-11T07:23:03;68.67;;;36.07;;
9823;SDS011;4951;50.778;7.196;2022-12-11T07:25:32;62.63;;;34.83;;
9823;SDS011;4951;50.778;7.196;2022-12-11T07:28:01;70.20;;;35.80;;
9823;SDS011;4951;50.778;7.196;2022-12-11T07:30:28;67.10;;;35.20;;
9823;SDS011;4951;50.778;7.196;2022-12-11T07:32:55;58.57;;;32.03;;
9823;SDS011;4951;50.778;7.196;2022-12-11T07:35:22;66.90;;;36.10;;
9823;SDS011;4951;50.778;7.196;2022-12-11T07:37:50;66.10;;;34.23;;
9823;SDS011;4951;50.778;7.196;2022-12-11T07:40:17;62.17;;;33.90;;
9823;SDS011;4951;50.778;7.196;2022-12-11T07:42:45;62.50;;;34.10;;
9823;SDS011;4951;50.778;7.196;2022-12-11T07:45:13;67.03;;;36.27;;
9823;SDS011;4951;50.778;7.196;2022-12-11T07:47:40;70.30;;;35.40;;
9823;SDS011;4951;50.778;7.196;2022-12-11T07:50:07;71.70;;;36.87;;
9823;SDS011;4951;50.778;7.196;2022-12-11T07:52:35;65.37;;;36.60;;
9823;SDS011;4951;50.778;7.196;2022-12-11T07:55:02;73.00;;;36.97;;
9823;SDS011;4951;50.778;7.196;2022-12-11T07:57:30;60.57;;;32.83;;
9823;SDS011;4951;50.778;7.196;2022-12-11T07:59:58;61.50;;;32.23;;
9823;SDS011;4951;50.778;7.196;2022-12-11T08:02:26;69.93;;;36.67;;
9823;SDS011;4951;50.778;7.196;2022-12-11T08:04:54;74.47;;;37.23;;
9823;SDS011;4951;50.778;7.196;2022-12-11T08:07:21;66.77;;;36.50;;
9823;SDS011;4951;50.778;7.196;2022-12-11T08:09:48;63.03;;;35.37;;
9823;SDS011;4951;50.778;7.196;2022-12-11T08:12:15;72.70;;;36.67;;
9823;SDS011;4951;50.778;7.196;2022-12-11T08:14:42;70.50;;;36.80;;
9823;SDS011;4951;50.778;7.196;2022-12-11T08:17:10;69.03;;;36.60;;
9823;SDS011;4951;50.778;7.196;2022-12-11T08:19:38;67.23;;;36.07;;
9823;SDS011;4951;50.778;7.196;2022-12-11T08:22:06;71.47;;;37.67;;
9823;SDS011;4951;50.778;7.196;2022-12-11T08:24:33;67.17;;;35.80;;
9823;SDS011;4951;50.778;7.196;2022-12-11T08:27:00;67.60;;;37.60;;
9823;SDS011;4951;50.778;7.196;2022-12-11T08:29:27;68.37;;;36.53;;
9823;SDS011;4951;50.778;7.196;2022-12-11T08:31:54;71.27;;;37.13;;
9823;SDS011;4951;50.778;7.196;2022-12-11T08:34:22;69.13;;;37.43;;
9823;SDS011;4951;50.778;7.196;2022-12-11T08:36:49;67.37;;;36.43;;
9823;SDS011;4951;50.778;7.196;2022-12-11T08:39:16;71.43;;;36.90;;
9823;SDS011;4951;50.778;7.196;2022-12-11T08:41:43;66.20;;;35.07;;
9823;SDS011;4951;50.778;7.196;2022-12-11T08:44:11;67.33;;;33.60;;
9823;SDS011;4951;50.778;7.196;2022-12-11T08:46:38;69.43;;;35.27;;
9823;SDS011;4951;50.778;7.196;2022-12-11T08:49:06;68.80;;;36.33;;
9823;SDS011;4951;50.778;7.196;2022-12-11T08:51:34;71.87;;;37.03;;
9823;SDS011;4951;50.778;7.196;2022-12-11T08:54:02;69.00;;;35.90;;
9823;SDS011;4951;50.778;7.196;2022-12-11T08:56:29;74.47;;;37.40;;
9823;SDS011;4951;50.778;7.196;2022-12-11T08:58:58;64.20;;;33.40;;
9823;SDS011;4951;50.778;7.196;2022-12-11T09:01:26;67.73;;;36.20;;
9823;SDS011;4951;50.778;7.196;2022-12-11T09:03:54;61.03;;;33.90;;
9823;SDS011;4951;50.778;7.196;2022-12-11T09:06:24;61.77;;;33.10;;
9823;SDS011;4951;50.778;7.196;2022-12-11T09:08:57;67.40;;;36.07;;
9823;SDS011;4951;50.778;7.196;2022-12-11T09:11:26;63.17;;;34.93;;
9823;SDS011;4951;50.778;7.196;2022-12-11T09:13:54;68.63;;;36.77;;
9823;SDS011;4951;50.778;7.196;2022-12-11T09:16:22;63.83;;;35.93;;
9823;SDS011;4951;50.778;7.196;2022-12-11T09:18:51;72.67;;;36.90;;
9823;SDS011;4951;50.778;7.196;2022-12-11T09:21:20;70.20;;;38.10;;
9823;SDS011;4951;50.778;7.196;2022-12-11T09:23:51;70.17;;;34.80;;
9823;SDS011;4951;50.778;7.196;2022-12-11T09:26:20;67.67;;;36.70;;
9823;SDS011;4951;50.778;7.196;2022-12-11T09:28:48;66.10;;;37.53;;
9823;SDS011;4951;50.778;7.196;2022-12-11T09:31:18;67.83;;;37.13;;
9823;SDS011;4951;50.778;7.196;2022-12-11T09:33:47;65.73;;;37.23;;
9823;SDS011;4951;50.778;7.196;2022-12-11T09:36:15;64.23;;;32.53;;
9823;SDS011;4951;50.778;7.196;2022-12-11T09:38:46;56.53;;;32.03;;
9823;SDS011;4951;50.778;7.196;2022-12-11T09:44:13;60.93;;;32.77;;
9823;SDS011;4951;50.778;7.196;2022-12-11T09:46:46;61.17;;;33.63;;
9823;SDS011;4951;50.778;7.196;2022-12-11T09:49:19;59.87;;;32.27;;
9823;SDS011;4951;50.778;7.196;2022-12-11T09:51:53;54.63;;;30.87;;
9823;SDS011;4951;50.778;7.196;2022-12-11T09:54:38;57.00;;;31.13;;
9823;SDS011;4951;50.778;7.196;2022-12-11T09:57:16;57.17;;;30.80;;
9823;SDS011;4951;50.778;7.196;2022-12-11T09:59:56;52.50;;;30.07;;
9823;SDS011;4951;50.778;7.196;2022-12-11T10:02:38;55.97;;;30.17;;
9823;SDS011;4951;50.778;7.196;2022-12-11T10:05:16;53.20;;;29.53;;
9823;SDS011;4951;50.778;7.196;2022-12-11T10:07:51;54.90;;;30.57;;
9823;SDS011;4951;50.778;7.196;2022-12-11T10:10:31;53.63;;;30.20;;
9823;SDS011;4951;50.778;7.196;2022-12-11T10:13:09;51.17;;;28.57;;
9823;SDS011;4951;50.778;7.196;2022-12-11T10:15:45;48.30;;;28.90;;
9823;SDS011;4951;50.778;7.196;2022-12-11T10:18:18;49.97;;;28.13;;
9823;SDS011;4951;50.778;7.196;2022-12-11T10:20:49;49.07;;;28.87;;
9823;SDS011;4951;50.778;7.196;2022-12-11T10:23:23;50.47;;;27.27;;
9823;SDS011;4951;50.778;7.196;2022-12-11T10:26:02;51.10;;;28.40;;
9823;SDS011;4951;50.778;7.196;2022-12-11T10:28:33;52.90;;;29.10;;
9823;SDS011;4951;50.778;7.196;2022-12-11T10:31:05;48.60;;;29.73;;
9823;SDS011;4951;50.778;7.196;2022-12-11T10:33:48;53.20;;;27.77;;
9823;SDS011;4951;50.778;7.196;2022-12-11T10:36:26;49.87;;;29.10;;
9823;SDS011;4951;50.778;7.196;2022-12-11T10:38:56;49.63;;;30.07;;
9823;SDS011;4951;50.778;7.196;2022-12-11T10:41:29;53.47;;;28.50;;
9823;SDS011;4951;50.778;7.196;2022-12-11T10:44:11;54.50;;;30.33;;
9823;SDS011;4951;50.778;7.196;2022-12-11T10:46:43;45.30;;;26.07;;
9823;SDS011;4951;50.778;7.196;2022-12-11T10:49:22;49.07;;;28.60;;
9823;SDS011;4951;50.778;7.196;2022-12-11T10:51:51;50.27;;;28.93;;
9823;SDS011;4951;50.778;7.196;2022-12-11T10:54:26;48.03;;;28.57;;
9823;SDS011;4951;50.778;7.196;2022-12-11T10:56:57;51.50;;;28.83;;
9823;SDS011;4951;50.778;7.196;2022-12-11T10:59:29;48.50;;;28.60;;
9823;SDS011;4951;50.778;7.196;2022-12-11T11:02:01;49.87;;;27.87;;
9823;SDS011;4951;50.778;7.196;2022-12-11T11:04:31;54.03;;;31.00;;
9823;SDS011;4951;50.778;7.196;2022-12-11T11:07:02;48.57;;;28.80;;
9823;SDS011;4951;50.778;7.196;2022-12-11T11:09:36;40.90;;;26.07;;
9823;SDS011;4951;50.778;7.196;2022-12-11T11:12:16;47.00;;;28.47;;
9823;SDS011;4951;50.778;7.196;2022-12-11T11:14:57;47.53;;;26.10;;
9823;SDS011;4951;50.778;7.196;2022-12-11T11:17:26;46.43;;;26.90;;
9823;SDS011;4951;50.778;7.196;2022-12-11T11:19:53;44.33;;;25.77;;
9823;SDS011;4951;50.778;7.196;2022-12-11T11:22:23;49.10;;;29.73;;
9823;SDS011;4951;50.778;7.196;2022-12-11T11:24:53;48.40;;;28.37;;
9823;SDS011;4951;50.778;7.196;2022-12-11T11:27:25;42.50;;;25.10;;
9823;SDS011;4951;50.778;7.196;2022-12-11T11:29:56;39.27;;;24.93;;
9823;SDS011;4951;50.778;7.196;2022-12-11T11:32:32;42.73;;;26.17;;
9823;SDS011;4951;50.778;7.196;2022-12-11T11:35:16;34.53;;;22.77;;
9823;SDS011;4951;50.778;7.196;2022-12-11T11:37:45;35.93;;;23.47;;
9823;SDS011;4951;50.778;7.196;2022-12-11T11:40:21;37.17;;;23.80;;
9823;SDS011;4951;50.778;7.196;2022-12-11T11:42:55;35.33;;;23.57;;
9823;SDS011;4951;50.778;7.196;2022-12-11T11:45:32;34.80;;;22.80;;
9823;SDS011;4951;50.778;7.196;2022-12-11T11:48:09;38.37;;;23.97;;
9823;SDS011;4951;50.778;7.196;2022-12-11T11:50:48;35.37;;;23.33;;
9823;SDS011;4951;50.778;7.196;2022-12-11T11:53:18;35.73;;;23.30;;
9823;SDS011;4951;50.778;7.196;2022-12-11T11:55:51;34.37;;;21.93;;
9823;SDS011;4951;50.778;7.196;2022-12-11T11:58:29;31.90;;;21.33;;
9823;SDS011;4951;50.778;7.196;2022-12-11T12:01:03;32.00;;;20.37;;
9823;SDS011;4951;50.778;7.196;2022-12-11T12:03:35;30.13;;;19.73;;
9823;SDS011;4951;50.778;7.196;2022-12-11T12:06:03;29.10;;;19.70;;
9823;SDS011;4951;50.778;7.196;2022-12-11T12:08:39;27.23;;;18.67;;
9823;SDS011;4951;50.778;7.196;2022-12-11T12:11:13;29.93;;;20.23;;
9823;SDS011;4951;50.778;7.196;2022-12-11T12:13:47;29.23;;;20.17;;
9823;SDS011;4951;50.778;7.196;2022-12-11T12:16:26;29.80;;;20.07;;
9823;SDS011;4951;50.778;7.196;2022-12-11T12:19:02;29.00;;;20.20;;
9823;SDS011;4951;50.778;7.196;2022-12-11T12:21:39;27.23;;;18.73;;
9823;SDS011;4951;50.778;7.196;2022-12-11T12:24:14;25.67;;;18.57;;
9823;SDS011;4951;50.778;7.196;2022-12-11T12:26:51;27.77;;;18.90;;
9823;SDS011;4951;50.778;7.196;2022-12-11T12:29:22;27.40;;;18.87;;
9823;SDS011;4951;50.778;7.196;2022-12-11T12:32:07;28.13;;;19.50;;
9823;SDS011;4951;50.778;7.196;2022-12-11T12:34:45;31.27;;;20.63;;
9823;SDS011;4951;50.778;7.196;2022-12-11T12:37:21;31.53;;;20.27;;
9823;SDS011;4951;50.778;7.196;2022-12-11T12:40:13;27.70;;;19.20;;
9823;SDS011;4951;50.778;7.196;2022-12-11T12:42:50;27.67;;;19.40;;
9823;SDS011;4951;50.778;7.196;2022-12-11T12:45:26;30.63;;;19.07;;
9823;SDS011;4951;50.778;7.196;2022-12-11T12:47:58;31.80;;;21.60;;
9823;SDS011;4951;50.778;7.196;2022-12-11T12:50:28;30.93;;;21.43;;
9823;SDS011;4951;50.778;7.196;2022-12-11T12:53:03;33.17;;;21.23;;
9823;SDS011;4951;50.778;7.196;2022-12-11T12:55:31;37.37;;;23.70;;
9823;SDS011;4951;50.778;7.196;2022-12-11T12:58:02;38.27;;;24.87;;
9823;SDS011;4951;50.778;7.196;2022-12-11T13:00:31;36.23;;;22.50;;
9823;SDS011;4951;50.778;7.196;2022-12-11T13:03:11;42.40;;;27.60;;
9823;SDS011;4951;50.778;7.196;2022-12-11T13:05:40;39.77;;;25.70;;
9823;SDS011;4951;50.778;7.196;2022-12-11T13:08:10;40.53;;;26.60;;
9823;SDS011;4951;50.778;7.196;2022-12-11T13:10:39;37.73;;;24.07;;
9823;SDS011;4951;50.778;7.196;2022-12-11T13:15:55;39.53;;;24.77;;
9823;SDS011;4951;50.778;7.196;2022-12-11T13:18:34;36.57;;;23.13;;
9823;SDS011;4951;50.778;7.196;2022-12-11T13:21:02;37.77;;;23.73;;
9823;SDS011;4951;50.778;7.196;2022-12-11T13:23:45;38.47;;;23.90;;
9823;SDS011;4951;50.778;7.196;2022-12-11T13:26:12;41.00;;;25.80;;
9823;SDS011;4951;50.778;7.196;2022-12-11T13:28:46;34.27;;;22.53;;
9823;SDS011;4951;50.778;7.196;2022-12-11T13:31:24;38.03;;;24.27;;
9823;SDS011;4951;50.778;7.196;2022-12-11T13:34:04;36.97;;;23.63;;
9823;SDS011;4951;50.778;7.196;2022-12-11T13:36:40;32.97;;;21.60;;
9823;SDS011;4951;50.778;7.196;2022-12-11T13:39:15;33.57;;;22.47;;
9823;SDS011;4951;50.778;7.196;2022-12-11T13:41:45;32.17;;;20.90;;
9823;SDS011;4951;50.778;7.196;2022-12-11T13:44:15;37.33;;;22.53;;
9823;SDS011;4951;50.778;7.196;2022-12-11T13:46:47;32.30;;;21.10;;
9823;SDS011;4951;50.778;7.196;2022-12-11T13:49:19;30.87;;;20.57;;
9823;SDS011;4951;50.778;7.196;2022-12-11T13:51:53;31.97;;;20.63;;
9823;SDS011;4951;50.778;7.196;2022-12-11T13:54:20;32.70;;;21.10;;
9823;SDS011;4951;50.778;7.196;2022-12-11T13:56:52;31.93;;;22.00;;
9823;SDS011;4951;50.778;7.196;2022-12-11T13:59:25;34.53;;;22.27;;
9823;SDS011;4951;50.778;7.196;2022-12-11T14:01:55;31.73;;;21.33;;
9823;SDS011;4951;50.778;7.196;2022-12-11T14:04:26;31.43;;;20.43;;
9823;SDS011;4951;50.778;7.196;2022-12-11T14:06:55;30.77;;;19.80;;
9823;SDS011;4951;50.778;7.196;2022-12-11T14:09:24;31.23;;;20.67;;
9823;SDS011;4951;50.778;7.196;2022-12-11T14:11:55;31.67;;;20.67;;
9823;SDS011;4951;50.778;7.196;2022-12-11T14:14:25;37.87;;;22.77;;
9823;SDS011;4951;50.778;7.196;2022-12-11T14:16:59;32.67;;;20.93;;
9823;SDS011;4951;50.778;7.196;2022-12-11T14:19:28;32.50;;;22.10;;
9823;SDS011;4951;50.778;7.196;2022-12-11T14:21:56;33.83;;;20.73;;
9823;SDS011;4951;50.778;7.196;2022-12-11T14:24:24;39.10;;;23.03;;
9823;SDS011;4951;50.778;7.196;2022-12-11T14:26:53;35.30;;;22.20;;
9823;SDS011;4951;50.778;7.196;2022-12-11T14:29:24;33.37;;;22.77;;
9823;SDS011;4951;50.778;7.196;2022-12-11T14:31:53;40.30;;;22.83;;
9823;SDS011;4951;50.778;7.196;2022-12-11T14:34:25;34.37;;;22.17;;
9823;SDS011;4951;50.778;7.196;2022-12-11T14:37:01;37.70;;;23.20;;
9823;SDS011;4951;50.778;7.196;2022-12-11T14:39:32;30.20;;;19.17;;
9823;SDS011;4951;50.778;7.196;2022-12-11T14:42:03;31.30;;;19.73;;
9823;SDS011;4951;50.778;7.196;2022-12-11T14:44:38;31.47;;;21.10;;
9823;SDS011;4951;50.778;7.196;2022-12-11T14:47:12;34.63;;;21.83;;
9823;SDS011;4951;50.778;7.196;2022-12-11T14:49:44;32.73;;;20.37;;
9823;SDS011;4951;50.778;7.196;2022-12-11T14:52:16;35.27;;;21.73;;
9823;SDS011;4951;50.778;7.196;2022-12-11T14:54:46;30.97;;;19.43;;
9823;SDS011;4951;50.778;7.196;2022-12-11T14:57:17;32.33;;;21.07;;
9823;SDS011;4951;50.778;7.196;2022-12-11T14:59:48;31.87;;;20.47;;
9823;SDS011;4951;50.778;7.196;2022-12-11T15:02:29;31.23;;;20.47;;
9823;SDS011;4951;50.778;7.196;2022-12-11T15:05:00;26.77;;;17.67;;
9823;SDS011;4951;50.778;7.196;2022-12-11T15:07:38;32.13;;;20.20;;
9823;SDS011;4951;50.778;7.196;2022-12-11T15:10:06;32.07;;;21.63;;
9823;SDS011;4951;50.778;7.196;2022-12-11T15:12:48;30.77;;;20.63;;
9823;SDS011;4951;50.778;7.196;2022-12-11T15:15:15;30.20;;;21.17;;